sensor_id;sensor_type;location;lat;lon;timestamp;pressure;altitude;pressure_sealevel;temperature;humidity
7309;BME280;3695;53.330;9.876;2023-02-12T00:01:23;124437.63;;;7.94;53.21
7309;BME280;3695;53.330;9.876;2023-02-12T00:03:50;124322.19;;;7.96;53.43
7309;BME280;3695;53.330;9.876;2023-02-12T00:06:16;124403.16;;;8.01;53.42
7309;BME280;3695;53.330;9.876;2023-02-12T00:08:43;124028.78;;;7.77;53.69
7309;BME280;3695;53.330;9.876;2023-02-12T00:11:10;124235.19;;;7.92;53.66
7309;BME280;3695;53.330;9.876;2023-02-12T00:13:38;124232.94;;;7.68;53.53
7309;BME280;3695;53.330;9.876;2023-02-12T00:16:06;124173.09;;;7.79;53.71
7309;BME280;3695;53.330;9.876;2023-02-12T00:18:33;124463.94;;;7.87;53.48
7309;BME280;3695;53.330;9.876;2023-02-12T00:21:00;124838.31;;;7.71;53.23
7309;BME280;3695;53.330;9.876;2023-02-12T00:23:26;125014.34;;;7.76;53.17
7309;BME280;3695;53.330;9.876;2023-02-12T00:25:52;124898.81;;;7.63;53.34
7309;BME280;3695;53.330;9.876;2023-02-12T00:28:19;125808.94;;;7.74;53.09
7309;BME280;3695;53.330;9.876;2023-02-12T00:30:47;125774.69;;;7.61;53.12
7309;BME280;3695;53.330;9.876;2023-02-12T00:33:13;126557.00;;;7.70;52.92
7309;BME280;3695;53.330;9.876;2023-02-12T00:35:40;126318.34;;;7.85;52.94
7309;BME280;3695;53.330;9.876;2023-02-12T00:38:06;126135.00;;;7.87;53.04
7309;BME280;3695;53.330;9.876;2023-02-12T00:40:33;126293.75;;;8.01;52.95
7309;BME280;3695;53.330;9.876;2023-02-12T00:42:59;125954.16;;;7.92;53.12
7309;BME280;3695;53.330;9.876;2023-02-12T00:45:25;125309.44;;;7.75;53.54
7309;BME280;3695;53.330;9.876;2023-02-12T00:47:53;125347.47;;;7.93;53.50
7309;BME280;3695;53.330;9.876;2023-02-12T00:50:20;124858.09;;;7.74;53.91
7309;BME280;3695;53.330;9.876;2023-02-12T00:52:46;124585.19;;;7.76;54.13
7309;BME280;3695;53.330;9.876;2023-02-12T00:55:12;124704.19;;;7.60;53.96
7309;BME280;3695;53.330;9.876;2023-02-12T00:57:39;124594.88;;;7.71;54.28
7309;BME280;3695;53.330;9.876;2023-02-12T01:00:06;124690.44;;;7.55;54.86
7309;BME280;3695;53.330;9.876;2023-02-12T01:02:33;124951.75;;;7.72;54.81
7309;BME280;3695;53.330;9.876;2023-02-12T01:05:01;125059.69;;;7.45;54.95
7309;BME280;3695;53.330;9.876;2023-02-12T01:07:27;125680.22;;;7.67;54.44
7309;BME280;3695;53.330;9.876;2023-02-12T01:09:54;125516.28;;;7.46;54.88
7309;BME280;3695;53.330;9.876;2023-02-12T01:12:20;125125.34;;;7.40;55.59
7309;BME280;3695;53.330;9.876;2023-02-12T01:14:46;125102.88;;;7.47;55.70
7309;BME280;3695;53.330;9.876;2023-02-12T01:17:13;125498.91;;;7.52;55.58
7309;BME280;3695;53.330;9.876;2023-02-12T01:19:39;125736.59;;;7.74;55.23
7309;BME280;3695;53.330;9.876;2023-02-12T01:22:07;125540.75;;;7.77;55.76
7309;BME280;3695;53.330;9.876;2023-02-12T01:24:34;125416.53;;;7.63;55.86
7309;BME280;3695;53.330;9.876;2023-02-12T01:27:00;125318.28;;;7.68;56.82
7309;BME280;3695;53.330;9.876;2023-02-12T01:29:26;125627.66;;;7.40;56.16
7309;BME280;3695;53.330;9.876;2023-02-12T01:31:53;126245.22;;;7.53;55.30
7309;BME280;3695;53.330;9.876;2023-02-12T01:34:19;126260.28;;;7.55;55.60
7309;BME280;3695;53.330;9.876;2023-02-12T01:36:46;126229.63;;;7.30;55.95
7309;BME280;3695;53.330;9.876;2023-02-12T01:39:13;126668.69;;;7.27;55.05
7309;BME280;3695;53.330;9.876;2023-02-12T01:41:42;126469.84;;;7.73;55.34
7309;BME280;3695;53.330;9.876;2023-02-12T01:44:13;126276.34;;;7.87;55.63
7309;BME280;3695;53.330;9.876;2023-02-12T01:46:41;125767.09;;;7.80;56.67
7309;BME280;3695;53.330;9.876;2023-02-12T01:49:11;126901.72;;;8.00;54.83
7309;BME280;3695;53.330;9.876;2023-02-12T01:51:40;126292.78;;;7.71;55.81
7309;BME280;3695;53.330;9.876;2023-02-12T01:54:09;123596.44;;;7.41;55.99
7309;BME280;3695;53.330;9.876;2023-02-12T01:56:38;124944.09;;;7.67;55.16
7309;BME280;3695;53.330;9.876;2023-02-12T01:59:06;125872.06;;;7.66;54.67
7309;BME280;3695;53.330;9.876;2023-02-12T02:01:33;125620.63;;;7.71;55.44
7309;BME280;3695;53.330;9.876;2023-02-12T02:04:01;125393.78;;;7.55;55.87
7309;BME280;3695;53.330;9.876;2023-02-12T02:06:32;125175.94;;;7.33;55.33
7309;BME280;3695;53.330;9.876;2023-02-12T02:09:01;125875.16;;;7.48;54.47
7309;BME280;3695;53.330;9.876;2023-02-12T02:11:28;126044.19;;;7.53;54.30
7309;BME280;3695;53.330;9.876;2023-02-12T02:14:13;126001.75;;;7.41;54.19
7309;BME280;3695;53.330;9.876;2023-02-12T02:17:06;124800.34;;;7.53;54.47
7309;BME280;3695;53.330;9.876;2023-02-12T02:19:54;124110.94;;;7.62;54.27
7309;BME280;3695;53.330;9.876;2023-02-12T02:22:33;123969.63;;;7.72;54.50
7309;BME280;3695;53.330;9.876;2023-02-12T02:25:29;123337.25;;;7.39;55.12
7309;BME280;3695;53.330;9.876;2023-02-12T02:28:08;123633.75;;;7.61;54.90
7309;BME280;3695;53.330;9.876;2023-02-12T02:30:42;123193.19;;;7.49;55.36
7309;BME280;3695;53.330;9.876;2023-02-12T02:33:26;122920.88;;;7.61;55.95
7309;BME280;3695;53.330;9.876;2023-02-12T02:36:08;122346.28;;;7.36;56.78
7309;BME280;3695;53.330;9.876;2023-02-12T02:38:41;122033.84;;;7.16;56.73
7309;BME280;3695;53.330;9.876;2023-02-12T02:41:15;122349.28;;;7.45;56.36
7309;BME280;3695;53.330;9.876;2023-02-12T02:43:46;122242.09;;;7.47;56.64
7309;BME280;3695;53.330;9.876;2023-02-12T02:46:19;121967.97;;;7.55;57.54
7309;BME280;3695;53.330;9.876;2023-02-12T02:48:52;121672.78;;;7.45;58.17
7309;BME280;3695;53.330;9.876;2023-02-12T02:51:26;121468.31;;;7.44;58.38
7309;BME280;3695;53.330;9.876;2023-02-12T02:53:57;121432.75;;;7.61;59.89
7309;BME280;3695;53.330;9.876;2023-02-12T02:56:28;121189.38;;;7.55;61.71
7309;BME280;3695;53.330;9.876;2023-02-12T02:58:58;120961.06;;;7.35;62.48
7309;BME280;3695;53.330;9.876;2023-02-12T03:01:30;121219.69;;;7.35;59.99
7309;BME280;3695;53.330;9.876;2023-02-12T03:04:03;121265.59;;;7.43;59.26
7309;BME280;3695;53.330;9.876;2023-02-12T03:06:34;121249.22;;;7.47;59.89
7309;BME280;3695;53.330;9.876;2023-02-12T03:09:08;120894.81;;;7.29;60.51
7309;BME280;3695;53.330;9.876;2023-02-12T03:11:38;121457.88;;;7.60;58.76
7309;BME280;3695;53.330;9.876;2023-02-12T03:14:06;121234.72;;;7.61;59.97
7309;BME280;3695;53.330;9.876;2023-02-12T03:16:40;120573.63;;;7.36;61.71
7309;BME280;3695;53.330;9.876;2023-02-12T03:19:11;120892.19;;;7.62;61.05
7309;BME280;3695;53.330;9.876;2023-02-12T03:21:42;120216.31;;;7.39;62.46
7309;BME280;3695;53.330;9.876;2023-02-12T03:24:14;120097.56;;;7.42;62.80
7309;BME280;3695;53.330;9.876;2023-02-12T03:26:45;119939.31;;;7.42;62.80
7309;BME280;3695;53.330;9.876;2023-02-12T03:29:13;119859.88;;;7.37;61.91
7309;BME280;3695;53.330;9.876;2023-02-12T03:31:48;119983.41;;;7.41;61.39
7309;BME280;3695;53.330;9.876;2023-02-12T03:34:24;119819.69;;;7.35;61.31
7309;BME280;3695;53.330;9.876;2023-02-12T03:36:57;120288.09;;;7.76;62.26
7309;BME280;3695;53.330;9.876;2023-02-12T03:39:29;119922.97;;;7.67;67.72
7309;BME280;3695;53.330;9.876;2023-02-12T03:42:01;119618.13;;;7.81;73.46
7309;BME280;3695;53.330;9.876;2023-02-12T03:44:43;119095.81;;;7.55;85.32
7309;BME280;3695;53.330;9.876;2023-02-12T03:47:20;119123.91;;;7.56;85.25
7309;BME280;3695;53.330;9.876;2023-02-12T03:49:53;119038.38;;;7.47;87.04
7309;BME280;3695;53.330;9.876;2023-02-12T03:52:21;119248.44;;;7.60;96.98
7309;BME280;3695;53.330;9.876;2023-02-12T03:54:47;118964.19;;;7.35;100.00
7309;BME280;3695;53.330;9.876;2023-02-12T03:57:16;119129.78;;;7.42;100.00
7309;BME280;3695;53.330;9.876;2023-02-12T03:59:44;119267.53;;;7.45;100.00
7309;BME280;3695;53.330;9.876;2023-02-12T04:02:11;119407.34;;;7.54;100.00
7309;BME280;3695;53.330;9.876;2023-02-12T04:04:40;119315.97;;;7.58;100.00
7309;BME280;3695;53.330;9.876;2023-02-12T04:07:07;119245.22;;;7.63;100.00
7309;BME280;3695;53.330;9.876;2023-02-12T04:09:34;119125.63;;;7.55;100.00
7309;BME280;3695;53.330;9.876;2023-02-12T04:14:52;119060.38;;;7.71;100.00
7309;BME280;3695;53.330;9.876;2023-02-12T04:17:26;118791.22;;;7.61;100.00
7309;BME280;3695;53.330;9.876;2023-02-12T04:20:04;118741.69;;;7.62;100.00
7309;BME280;3695;53.330;9.876;2023-02-12T04:22:44;118872.28;;;7.65;100.00
7309;BME280;3695;53.330;9.876;2023-02-12T04:25:21;118820.78;;;7.65;100.00
7309;BME280;3695;53.330;9.876;2023-02-12T04:27:56;118615.75;;;7.54;100.00
7309;BME280;3695;53.330;9.876;2023-02-12T04:30:28;118840.00;;;7.72;100.00
7309;BME280;3695;53.330;9.876;2023-02-12T04:32:59;118545.25;;;7.60;100.00
7309;BME280;3695;53.330;9.876;2023-02-12T04:35:31;118608.31;;;7.64;100.00
7309;BME280;3695;53.330;9.876;2023-02-12T04:38:05;118612.91;;;7.82;100.00
7309;BME280;3695;53.330;9.876;2023-02-12T04:40:35;118501.19;;;7.84;100.00
7309;BME280;3695;53.330;9.876;2023-02-12T04:43:03;118250.13;;;7.74;100.00
7309;BME280;3695;53.330;9.876;2023-02-12T04:45:32;118304.75;;;7.82;100.00
7309;BME280;3695;53.330;9.876;2023-02-12T04:48:00;118078.88;;;7.71;100.00
7309;BME280;3695;53.330;9.876;2023-02-12T04:50:29;118072.09;;;7.80;100.00
7309;BME280;3695;53.330;9.876;2023-02-12T04:53:04;117895.06;;;7.68;100.00
7309;BME280;3695;53.330;9.876;2023-02-12T04:55:30;117674.88;;;7.64;100.00
7309;BME280;3695;53.330;9.876;2023-02-12T04:57:56;117685.47;;;7.75;100.00
7309;BME280;3695;53.330;9.876;2023-02-12T05:00:23;117752.25;;;7.87;100.00
7309;BME280;3695;53.330;9.876;2023-02-12T05:02:49;117484.88;;;7.75;100.00
7309;BME280;3695;53.330;9.876;2023-02-12T05:05:16;117414.41;;;7.75;100.00
7309;BME280;3695;53.330;9.876;2023-02-12T05:07:42;117368.38;;;7.82;100.00
7309;BME280;3695;53.330;9.876;2023-02-12T05:10:11;117217.66;;;7.70;100.00
7309;BME280;3695;53.330;9.876;2023-02-12T05:12:38;117135.28;;;7.55;100.00
7309;BME280;3695;53.330;9.876;2023-02-12T05:15:05;117484.06;;;7.69;100.00
7309;BME280;3695;53.330;9.876;2023-02-12T05:17:31;117636.13;;;7.77;100.00
7309;BME280;3695;53.330;9.876;2023-02-12T05:19:57;117589.84;;;7.76;100.00
7309;BME280;3695;53.330;9.876;2023-02-12T05:22:24;117643.50;;;7.78;100.00
7309;BME280;3695;53.330;9.876;2023-02-12T05:24:50;117431.09;;;7.78;100.00
7309;BME280;3695;53.330;9.876;2023-02-12T05:27:18;117286.00;;;7.67;100.00
7309;BME280;3695;53.330;9.876;2023-02-12T05:29:45;117583.81;;;7.91;100.00
7309;BME280;3695;53.330;9.876;2023-02-12T05:32:11;117247.56;;;7.84;100.00
7309;BME280;3695;53.330;9.876;2023-02-12T05:34:38;117135.09;;;7.87;100.00
7309;BME280;3695;53.330;9.876;2023-02-12T05:37:04;116968.75;;;7.94;100.00
7309;BME280;3695;53.330;9.876;2023-02-12T05:39:31;116597.81;;;7.83;100.00
7309;BME280;3695;53.330;9.876;2023-02-12T05:41:57;116522.69;;;7.82;100.00
7309;BME280;3695;53.330;9.876;2023-02-12T05:44:25;116602.00;;;7.95;100.00
7309;BME280;3695;53.330;9.876;2023-02-12T05:46:51;116374.41;;;7.81;100.00
7309;BME280;3695;53.330;9.876;2023-02-12T05:49:18;116571.84;;;7.85;100.00
7309;BME280;3695;53.330;9.876;2023-02-12T05:51:44;116478.97;;;7.79;100.00
7309;BME280;3695;53.330;9.876;2023-02-12T05:54:11;116396.81;;;7.87;100.00
7309;BME280;3695;53.330;9.876;2023-02-12T05:56:42;116447.91;;;7.91;100.00
7309;BME280;3695;53.330;9.876;2023-02-12T05:59:12;116264.28;;;7.81;100.00
7309;BME280;3695;53.330;9.876;2023-02-12T06:01:42;116083.59;;;7.73;100.00
7309;BME280;3695;53.330;9.876;2023-02-12T06:04:13;116415.75;;;7.94;100.00
7309;BME280;3695;53.330;9.876;2023-02-12T06:06:40;116275.03;;;7.88;100.00
7309;BME280;3695;53.330;9.876;2023-02-12T06:09:07;116118.81;;;7.73;100.00
7309;BME280;3695;53.330;9.876;2023-02-12T06:11:34;116547.88;;;7.81;100.00
7309;BME280;3695;53.330;9.876;2023-02-12T06:14:01;116628.78;;;7.78;100.00
7309;BME280;3695;53.330;9.876;2023-02-12T06:16:28;116608.31;;;7.73;100.00
7309;BME280;3695;53.330;9.876;2023-02-12T06:18:56;116762.16;;;7.82;100.00
7309;BME280;3695;53.330;9.876;2023-02-12T06:21:25;116814.03;;;7.93;100.00
7309;BME280;3695;53.330;9.876;2023-02-12T06:23:51;116750.34;;;7.89;100.00
7309;BME280;3695;53.330;9.876;2023-02-12T06:26:18;116581.91;;;7.86;100.00
7309;BME280;3695;53.330;9.876;2023-02-12T06:28:45;116616.34;;;7.94;100.00
7309;BME280;3695;53.330;9.876;2023-02-12T06:31:20;116428.75;;;7.89;100.00
7309;BME280;3695;53.330;9.876;2023-02-12T06:33:48;116410.31;;;7.94;100.00
7309;BME280;3695;53.330;9.876;2023-02-12T06:36:16;116296.13;;;7.91;100.00
7309;BME280;3695;53.330;9.876;2023-02-12T06:38:42;116129.28;;;7.86;100.00
7309;BME280;3695;53.330;9.876;2023-02-12T06:41:09;116176.84;;;7.91;100.00
7309;BME280;3695;53.330;9.876;2023-02-12T06:43:35;116149.84;;;8.00;100.00
7309;BME280;3695;53.330;9.876;2023-02-12T06:46:03;116071.06;;;7.98;100.00
7309;BME280;3695;53.330;9.876;2023-02-12T06:48:30;115893.19;;;7.83;100.00
7309;BME280;3695;53.330;9.876;2023-02-12T06:51:03;116004.53;;;7.93;100.00
7309;BME280;3695;53.330;9.876;2023-02-12T06:53:31;115982.41;;;7.97;100.00
7309;BME280;3695;53.330;9.876;2023-02-12T06:55:59;115838.53;;;7.87;100.00
7309;BME280;3695;53.330;9.876;2023-02-12T06:58:25;116123.63;;;8.07;100.00
7309;BME280;3695;53.330;9.876;2023-02-12T07:00:52;115947.16;;;7.97;100.00
7309;BME280;3695;53.330;9.876;2023-02-12T07:03:18;116036.53;;;8.04;100.00
7309;BME280;3695;53.330;9.876;2023-02-12T07:05:45;115946.81;;;7.94;100.00
7309;BME280;3695;53.330;9.876;2023-02-12T07:08:12;116020.34;;;7.97;100.00
7309;BME280;3695;53.330;9.876;2023-02-12T07:10:40;116282.19;;;8.11;100.00
7309;BME280;3695;53.330;9.876;2023-02-12T07:13:07;116076.81;;;8.01;100.00
7309;BME280;3695;53.330;9.876;2023-02-12T07:15:37;116161.22;;;8.20;100.00
7309;BME280;3695;53.330;9.876;2023-02-12T07:18:04;115796.97;;;7.95;100.00
7309;BME280;3695;53.330;9.876;2023-02-12T07:20:31;115865.97;;;8.14;100.00
7309;BME280;3695;53.330;9.876;2023-02-12T07:22:57;115545.25;;;7.89;100.00
7309;BME280;3695;53.330;9.876;2023-02-12T07:25:24;115800.19;;;8.00;100.00
7309;BME280;3695;53.330;9.876;2023-02-12T07:27:52;115837.16;;;7.99;100.00
7309;BME280;3695;53.330;9.876;2023-02-12T07:30:18;116085.03;;;8.26;100.00
7309;BME280;3695;53.330;9.876;2023-02-12T07:32:45;115864.84;;;8.12;100.00
7309;BME280;3695;53.330;9.876;2023-02-12T07:35:12;115810.31;;;8.18;100.00
7309;BME280;3695;53.330;9.876;2023-02-12T07:37:38;115508.41;;;8.00;100.00
7309;BME280;3695;53.330;9.876;2023-02-12T07:40:06;115560.53;;;7.98;100.00
7309;BME280;3695;53.330;9.876;2023-02-12T07:42:33;115684.31;;;8.06;100.00
7309;BME280;3695;53.330;9.876;2023-02-12T07:45:00;115527.06;;;7.97;100.00
7309;BME280;3695;53.330;9.876;2023-02-12T07:47:27;115386.81;;;7.86;100.00
7309;BME280;3695;53.330;9.876;2023-02-12T07:49:53;115725.16;;;8.16;100.00
7309;BME280;3695;53.330;9.876;2023-02-12T07:52:20;115489.44;;;8.00;100.00
7309;BME280;3695;53.330;9.876;2023-02-12T07:54:46;115462.03;;;8.14;100.00
7309;BME280;3695;53.330;9.876;2023-02-12T07:57:13;115355.22;;;8.12;100.00
7309;BME280;3695;53.330;9.876;2023-02-12T07:59:39;115169.19;;;8.04;100.00
7309;BME280;3695;53.330;9.876;2023-02-12T08:02:08;115164.44;;;7.93;100.00
7309;BME280;3695;53.330;9.876;2023-02-12T08:04:34;115345.66;;;8.07;100.00
7309;BME280;3695;53.330;9.876;2023-02-12T08:07:01;115421.84;;;8.19;100.00
7309;BME280;3695;53.330;9.876;2023-02-12T08:09:28;115207.28;;;7.97;100.00
7309;BME280;3695;53.330;9.876;2023-02-12T08:11:55;115201.91;;;7.88;100.00
7309;BME280;3695;53.330;9.876;2023-02-12T08:14:23;115605.72;;;8.14;100.00
7309;BME280;3695;53.330;9.876;2023-02-12T08:16:50;115637.75;;;8.10;100.00
7309;BME280;3695;53.330;9.876;2023-02-12T08:19:18;115535.41;;;8.07;100.00
7309;BME280;3695;53.330;9.876;2023-02-12T08:21:44;126446.81;;;8.33;100.00
7309;BME280;3695;53.330;9.876;2023-02-12T08:24:11;114353.56;;;7.84;100.00
7309;BME280;3695;53.330;9.876;2023-02-12T08:26:38;114934.31;;;8.24;100.00
7309;BME280;3695;53.330;9.876;2023-02-12T08:29:07;115025.31;;;8.30;100.00
7309;BME280;3695;53.330;9.876;2023-02-12T08:31:36;114904.56;;;8.05;100.00
7309;BME280;3695;53.330;9.876;2023-02-12T08:34:03;115044.44;;;8.13;100.00
7309;BME280;3695;53.330;9.876;2023-02-12T08:36:35;115072.22;;;8.10;100.00
7309;BME280;3695;53.330;9.876;2023-02-12T08:39:03;114944.97;;;7.93;100.00
7309;BME280;3695;53.330;9.876;2023-02-12T08:41:30;115122.78;;;8.01;100.00
7309;BME280;3695;53.330;9.876;2023-02-12T08:43:58;115166.84;;;7.90;100.00
7309;BME280;3695;53.330;9.876;2023-02-12T08:46:26;115491.53;;;8.11;100.00
7309;BME280;3695;53.330;9.876;2023-02-12T08:48:55;115375.88;;;8.29;100.00
7309;BME280;3695;53.330;9.876;2023-02-12T08:51:24;115507.78;;;8.29;100.00
7309;BME280;3695;53.330;9.876;2023-02-12T08:53:54;115140.69;;;7.90;100.00
7309;BME280;3695;53.330;9.876;2023-02-12T08:56:21;115541.75;;;8.16;100.00
7309;BME280;3695;53.330;9.876;2023-02-12T08:58:48;115472.22;;;8.17;100.00
7309;BME280;3695;53.330;9.876;2023-02-12T09:01:16;115603.97;;;8.41;100.00
7309;BME280;3695;53.330;9.876;2023-02-12T09:03:44;115321.03;;;8.23;100.00
7309;BME280;3695;53.330;9.876;2023-02-12T09:06:12;115235.44;;;8.16;100.00
7309;BME280;3695;53.330;9.876;2023-02-12T09:08:39;115262.25;;;8.13;100.00
7309;BME280;3695;53.330;9.876;2023-02-12T09:11:09;115320.09;;;8.23;100.00
7309;BME280;3695;53.330;9.876;2023-02-12T09:13:37;115140.47;;;8.34;100.00
7309;BME280;3695;53.330;9.876;2023-02-12T09:16:05;114947.53;;;8.10;100.00
7309;BME280;3695;53.330;9.876;2023-02-12T09:18:32;114716.00;;;7.88;100.00
7309;BME280;3695;53.330;9.876;2023-02-12T09:21:00;115015.81;;;8.06;100.00
7309;BME280;3695;53.330;9.876;2023-02-12T09:23:27;115256.88;;;8.32;100.00
7309;BME280;3695;53.330;9.876;2023-02-12T09:25:53;115313.31;;;8.45;100.00
7309;BME280;3695;53.330;9.876;2023-02-12T09:28:21;115132.41;;;8.44;100.00
7309;BME280;3695;53.330;9.876;2023-02-12T09:30:47;115235.38;;;8.61;100.00
7309;BME280;3695;53.330;9.876;2023-02-12T09:33:14;114994.19;;;8.54;100.00
7309;BME280;3695;53.330;9.876;2023-02-12T09:35:40;114837.44;;;8.60;100.00
7309;BME280;3695;53.330;9.876;2023-02-12T09:38:07;114414.41;;;8.40;100.00
7309;BME280;3695;53.330;9.876;2023-02-12T09:40:39;114356.22;;;8.46;100.00
7309;BME280;3695;53.330;9.876;2023-02-12T09:43:15;114381.78;;;8.60;100.00
7309;BME280;3695;53.330;9.876;2023-02-12T09:45:50;114257.50;;;8.55;100.00
7309;BME280;3695;53.330;9.876;2023-02-12T09:48:33;113914.38;;;8.13;100.00
7309;BME280;3695;53.330;9.876;2023-02-12T09:51:06;114267.00;;;8.49;100.00
7309;BME280;3695;53.330;9.876;2023-02-12T09:53:35;114091.44;;;8.47;100.00
7309;BME280;3695;53.330;9.876;2023-02-12T09:56:07;114165.31;;;8.66;100.00
7309;BME280;3695;53.330;9.876;2023-02-12T09:58:40;113909.91;;;8.48;100.00
7309;BME280;3695;53.330;9.876;2023-02-12T10:01:11;113889.31;;;8.62;100.00
7309;BME280;3695;53.330;9.876;2023-02-12T10:03:38;113744.44;;;8.59;100.00
7309;BME280;3695;53.330;9.876;2023-02-12T10:06:08;113591.59;;;8.45;100.00
7309;BME280;3695;53.330;9.876;2023-02-12T10:08:46;112083.66;;;8.59;100.00
7309;BME280;3695;53.330;9.876;2023-02-12T10:11:39;112037.59;;;8.80;100.00
7309;BME280;3695;53.330;9.876;2023-02-12T10:14:27;111911.69;;;8.94;100.00
7309;BME280;3695;53.330;9.876;2023-02-12T10:17:03;111528.22;;;8.62;100.00
7309;BME280;3695;53.330;9.876;2023-02-12T10:19:51;111632.34;;;8.93;100.00
7309;BME280;3695;53.330;9.876;2023-02-12T10:22:30;111503.25;;;8.96;100.00
7309;BME280;3695;53.330;9.876;2023-02-12T10:25:08;111162.13;;;8.53;100.00
7309;BME280;3695;53.330;9.876;2023-02-12T10:27:43;111336.50;;;8.82;100.00
7309;BME280;3695;53.330;9.876;2023-02-12T10:30:18;111137.09;;;8.62;100.00
7309;BME280;3695;53.330;9.876;2023-02-12T10:32:49;111010.59;;;8.59;100.00
7309;BME280;3695;53.330;9.876;2023-02-12T10:35:20;111037.81;;;8.64;100.00
7309;BME280;3695;53.330;9.876;2023-02-12T10:37:50;111080.44;;;8.69;100.00
7309;BME280;3695;53.330;9.876;2023-02-12T10:40:21;110996.00;;;8.54;100.00
7309;BME280;3695;53.330;9.876;2023-02-12T10:42:50;110998.56;;;8.51;100.00
7309;BME280;3695;53.330;9.876;2023-02-12T10:45:20;111082.56;;;8.51;100.00
7309;BME280;3695;53.330;9.876;2023-02-12T10:47:50;111379.50;;;8.71;100.00
7309;BME280;3695;53.330;9.876;2023-02-12T10:50:23;111432.84;;;8.72;100.00
7309;BME280;3695;53.330;9.876;2023-02-12T10:52:56;111332.31;;;8.65;100.00
7309;BME280;3695;53.330;9.876;2023-02-12T10:55:27;111300.09;;;8.74;100.00
7309;BME280;3695;53.330;9.876;2023-02-12T10:57:54;111377.56;;;8.94;100.00
7309;BME280;3695;53.330;9.876;2023-02-12T11:00:24;111069.59;;;8.69;100.00
7309;BME280;3695;53.330;9.876;2023-02-12T11:03:02;110921.25;;;8.62;100.00
7309;BME280;3695;53.330;9.876;2023-02-12T11:05:31;111090.53;;;8.75;100.00
7309;BME280;3695;53.330;9.876;2023-02-12T11:07:59;111118.69;;;8.80;100.00
7309;BME280;3695;53.330;9.876;2023-02-12T11:10:27;111074.66;;;8.89;100.00
7309;BME280;3695;53.330;9.876;2023-02-12T11:12:54;111186.41;;;9.07;100.00
7309;BME280;3695;53.330;9.876;2023-02-12T11:15:23;110982.72;;;8.96;100.00
7309;BME280;3695;53.330;9.876;2023-02-12T11:17:56;110789.69;;;8.73;100.00
7309;BME280;3695;53.330;9.876;2023-02-12T11:20:27;110750.50;;;8.59;100.00
7309;BME280;3695;53.330;9.876;2023-02-12T11:22:56;110978.66;;;8.80;100.00
7309;BME280;3695;53.330;9.876;2023-02-12T11:25:25;111130.13;;;8.70;100.00
7309;BME280;3695;53.330;9.876;2023-02-12T11:28:02;111223.84;;;8.92;100.00
7309;BME280;3695;53.330;9.876;2023-02-12T11:30:29;111135.97;;;8.83;100.00
7309;BME280;3695;53.330;9.876;2023-02-12T11:33:16;111287.69;;;9.09;100.00
7309;BME280;3695;53.330;9.876;2023-02-12T11:35:53;111228.03;;;9.09;100.00
7309;BME280;3695;53.330;9.876;2023-02-12T11:38:24;111134.78;;;9.04;100.00
7309;BME280;3695;53.330;9.876;2023-02-12T11:40:56;111126.25;;;9.22;100.00
7309;BME280;3695;53.330;9.876;2023-02-12T11:43:24;110939.56;;;9.04;100.00
7309;BME280;3695;53.330;9.876;2023-02-12T11:45:53;110762.06;;;8.90;100.00
7309;BME280;3695;53.330;9.876;2023-02-12T11:48:23;110718.94;;;8.99;100.00
7309;BME280;3695;53.330;9.876;2023-02-12T11:50:54;110810.69;;;9.18;100.00
7309;BME280;3695;53.330;9.876;2023-02-12T11:53:23;110802.59;;;9.21;100.00
7309;BME280;3695;53.330;9.876;2023-02-12T11:55:56;110661.50;;;9.17;100.00
7309;BME280;3695;53.330;9.876;2023-02-12T11:58:25;110673.19;;;9.14;100.00
7309;BME280;3695;53.330;9.876;2023-02-12T12:00:57;110537.44;;;9.05;100.00
7309;BME280;3695;53.330;9.876;2023-02-12T12:03:28;110508.31;;;8.95;100.00
7309;BME280;3695;53.330;9.876;2023-02-12T12:06:00;110643.16;;;9.03;100.00
7309;BME280;3695;53.330;9.876;2023-02-12T12:08:34;110796.41;;;9.27;100.00
7309;BME280;3695;53.330;9.876;2023-02-12T12:11:06;110610.59;;;9.02;100.00
7309;BME280;3695;53.330;9.876;2023-02-12T12:13:39;110475.56;;;8.82;100.00
7309;BME280;3695;53.330;9.876;2023-02-12T12:16:10;110617.00;;;9.07;100.00
7309;BME280;3695;53.330;9.876;2023-02-12T12:18:59;110720.50;;;9.28;100.00
7309;BME280;3695;53.330;9.876;2023-02-12T12:21:51;110515.47;;;8.91;100.00
7309;BME280;3695;53.330;9.876;2023-02-12T12:24:24;110692.13;;;9.12;100.00
7309;BME280;3695;53.330;9.876;2023-02-12T12:26:57;110710.25;;;9.13;100.00
7309;BME280;3695;53.330;9.876;2023-02-12T12:29:38;110701.25;;;9.16;100.00
7309;BME280;3695;53.330;9.876;2023-02-12T12:32:11;110685.88;;;9.15;100.00
7309;BME280;3695;53.330;9.876;2023-02-12T12:34:40;110573.63;;;9.07;100.00
7309;BME280;3695;53.330;9.876;2023-02-12T12:37:16;110564.56;;;9.05;100.00
7309;BME280;3695;53.330;9.876;2023-02-12T12:39:55;110586.53;;;9.19;100.00
7309;BME280;3695;53.330;9.876;2023-02-12T12:42:49;110461.34;;;8.96;100.00
7309;BME280;3695;53.330;9.876;2023-02-12T12:45:33;110642.50;;;9.15;100.00
7309;BME280;3695;53.330;9.876;2023-02-12T12:48:13;110711.09;;;9.11;100.00
7309;BME280;3695;53.330;9.876;2023-02-12T12:50:53;110686.56;;;9.05;100.00
7309;BME280;3695;53.330;9.876;2023-02-12T12:53:39;110901.13;;;9.20;100.00
7309;BME280;3695;53.330;9.876;2023-02-12T12:56:27;110799.28;;;8.97;100.00
7309;BME280;3695;53.330;9.876;2023-02-12T12:59:16;110832.13;;;9.07;100.00
7309;BME280;3695;53.330;9.876;2023-02-12T13:02:29;110933.66;;;9.20;100.00
7309;BME280;3695;53.330;9.876;2023-02-12T13:05:28;110917.97;;;9.07;100.00
7309;BME280;3695;53.330;9.876;2023-02-12T13:08:02;110908.38;;;9.21;100.00
7309;BME280;3695;53.330;9.876;2023-02-12T13:10:39;110830.00;;;9.33;100.00
7309;BME280;3695;53.330;9.876;2023-02-12T13:13:24;110701.56;;;9.31;100.00
7309;BME280;3695;53.330;9.876;2023-02-12T13:16:00;110667.22;;;9.32;100.00
7309;BME280;3695;53.330;9.876;2023-02-12T13:18:36;110643.94;;;9.43;100.00
7309;BME280;3695;53.330;9.876;2023-02-12T13:21:12;110493.53;;;9.24;100.00
7309;BME280;3695;53.330;9.876;2023-02-12T13:23:47;110536.19;;;9.34;100.00
7309;BME280;3695;53.330;9.876;2023-02-12T13:26:21;110556.97;;;9.34;100.00
7309;BME280;3695;53.330;9.876;2023-02-12T13:28:58;110570.56;;;9.35;100.00
7309;BME280;3695;53.330;9.876;2023-02-12T13:31:28;110727.34;;;9.52;100.00
7309;BME280;3695;53.330;9.876;2023-02-12T13:33:58;110462.50;;;9.08;100.00
7309;BME280;3695;53.330;9.876;2023-02-12T13:36:25;110701.44;;;9.25;100.00